Time;durP1;ratioP1;P1;durP2;ratioP2;P2;SDS_P1;SDS_P2;PMS_P1;PMS_P2;Temp;Humidity;BMP_temperature;BMP_pressure;BME280_temperature;BME280_humidity;BME280_pressure;Samples;Min_cycle;Max_cycle;Signal;HPM_P1;HPM_P2
2023/07/05 00:01:18;;;;;;;4.10;3.30;;;;;;;21.09;100.00;100944.60;109650;1241;69762;-67
2023/07/05 00:03:47;;;;;;;5.70;3.80;;;;;;;21.09;100.00;100949.09;109613;1240;63537;-67
2023/07/05 00:06:16;;;;;;;5.10;3.50;;;;;;;21.09;100.00;100947.32;109648;1241;58316;-68
2023/07/05 00:08:45;;;;;;;4.60;3.20;;;;;;;21.16;100.00;100942.45;109632;1240;60819;-67
2023/07/05 00:11:14;;;;;;;5.60;3.70;;;;;;;21.18;100.00;100944.00;109630;1241;74142;-67
2023/07/05 00:13:43;;;;;;;5.10;3.50;;;;;;;21.17;100.00;100944.23;109515;1240;72667;-68
2023/07/05 00:16:12;;;;;;;5.40;3.40;;;;;;;21.15;100.00;100949.71;109564;1240;70645;-69
2023/07/05 00:18:41;;;;;;;7.20;3.70;;;;;;;21.15;100.00;100950.61;109662;1240;63137;-68
2023/07/05 00:21:11;;;;;;;4.80;3.30;;;;;;;21.09;100.00;100952.89;109729;1241;57745;-69
2023/07/05 00:23:45;;;;;;;4.70;3.40;;;;;;;21.07;100.00;100952.81;109429;1241;331226;-68
2023/07/05 00:26:13;;;;;;;4.80;3.80;;;;;;;21.07;100.00;100950.69;109689;1240;74401;-66
2023/07/05 00:28:43;;;;;;;4.10;3.60;;;;;;;21.07;100.00;100947.13;109561;1239;63866;-66
2023/07/05 00:31:11;;;;;;;4.60;3.90;;;;;;;21.05;100.00;100948.20;109573;1240;70298;-66
2023/07/05 00:33:40;;;;;;;5.20;3.40;;;;;;;21.08;100.00;100953.80;109657;1240;73435;-66
2023/07/05 00:36:09;;;;;;;4.90;3.30;;;;;;;21.08;100.00;100957.84;109656;1242;57763;-66
2023/07/05 00:38:38;;;;;;;5.70;3.60;;;;;;;21.07;100.00;100959.55;109694;1241;57740;-66
2023/07/05 00:41:07;;;;;;;6.00;4.20;;;;;;;20.94;100.00;100945.27;109821;1241;63568;-66
2023/07/05 00:43:36;;;;;;;5.80;3.80;;;;;;;21.01;100.00;100951.52;109694;1242;61247;-66
2023/07/05 00:46:25;;;;;;;5.50;3.40;;;;;;;21.04;100.00;100944.27;109658;1241;69886;-66
2023/07/05 00:49:18;;;;;;;5.50;4.00;;;;;;;20.99;100.00;100950.56;109539;1241;74437;-66
2023/07/05 00:51:58;;;;;;;;;;;;;;;21.09;100.00;100950.97;109537;1241;58356;-66
2023/07/05 00:54:35;;;;;;;4.90;3.70;;;;;;;21.15;100.00;100951.21;109525;1239;61495;-65
2023/07/05 00:57:31;;;;;;;5.10;4.20;;;;;;;21.17;100.00;100950.61;109333;1240;64202;-65
2023/07/05 01:00:12;;;;;;;5.00;3.90;;;;;;;21.25;100.00;100950.14;109739;1239;61793;-65
2023/07/05 01:02:45;;;;;;;6.30;4.00;;;;;;;21.32;100.00;100948.38;109675;1241;59259;-65
2023/07/05 01:05:14;;;;;;;5.50;4.30;;;;;;;21.28;100.00;100936.27;109614;1240;74028;-66
2023/07/05 01:07:43;;;;;;;5.60;3.60;;;;;;;21.35;100.00;100941.90;109542;1242;62514;-65
2023/07/05 01:10:20;;;;;;;5.90;4.10;;;;;;;21.35;100.00;100940.10;109624;1240;61339;-66
2023/07/05 01:13:08;;;;;;;5.10;3.80;;;;;;;21.29;100.00;100937.08;109563;1240;74255;-66
2023/07/05 01:16:38;;;;;;;5.60;3.80;;;;;;;21.29;100.00;100940.06;109490;1240;62093;-66
2023/07/05 01:19:25;;;;;;;4.30;3.30;;;;;;;21.35;100.00;100940.39;109582;1241;59909;-68
2023/07/05 01:22:12;;;;;;;7.00;4.30;;;;;;;21.30;100.00;100945.20;109656;1240;73900;-68
2023/07/05 01:24:59;;;;;;;4.30;3.40;;;;;;;21.29;100.00;100949.96;109558;1242;58310;-68
2023/07/05 01:27:50;;;;;;;4.60;3.50;;;;;;;21.30;100.00;100949.49;109630;1242;57744;-68
2023/07/05 01:30:32;;;;;;;4.50;3.50;;;;;;;21.29;100.00;100950.29;109788;1240;73492;-68
2023/07/05 01:33:08;;;;;;;6.00;3.60;;;;;;;21.30;100.00;100955.74;109709;1239;71932;-68
2023/07/05 01:35:50;;;;;;;8.10;3.60;;;;;;;21.26;100.00;100954.34;109740;1240;70482;-68
2023/07/05 01:38:20;;;;;;;4.70;3.20;;;;;;;21.28;100.00;100952.75;109738;1241;63408;-68
2023/07/05 01:40:53;;;;;;;5.30;3.60;;;;;;;21.30;100.00;100952.33;109838;1241;62711;-68
2023/07/05 01:43:26;;;;;;;4.90;3.80;;;;;;;21.31;100.00;100946.16;109891;1240;58236;-68
2023/07/05 01:46:23;;;;;;;4.40;3.50;;;;;;;21.33;100.00;100945.47;109759;1239;63825;-68
2023/07/05 01:49:41;;;;;;;6.60;4.30;;;;;;;21.29;100.00;100948.77;109811;1240;70442;-69
2023/07/05 01:52:27;;;;;;;5.50;3.70;;;;;;;21.30;100.00;100945.31;109640;1239;70278;-67
2023/07/05 01:55:10;;;;;;;5.80;3.90;;;;;;;21.32;100.00;100945.20;109566;1244;73558;-67
2023/07/05 01:57:52;;;;;;;4.60;3.40;;;;;;;21.29;100.00;100940.23;109734;1241;58233;-67
2023/07/05 02:00:25;;;;;;;5.70;4.00;;;;;;;21.26;100.00;100939.17;109826;1241;58496;-67
2023/07/05 02:03:05;;;;;;;4.30;3.70;;;;;;;21.21;100.00;100935.14;109706;1240;73635;-67
2023/07/05 02:05:35;;;;;;;5.50;3.90;;;;;;;21.11;100.00;100928.13;109529;1245;62070;-66
2023/07/05 02:08:04;;;;;;;5.40;4.10;;;;;;;21.10;100.00;100936.49;109520;1239;59102;-67
2023/07/05 02:10:33;;;;;;;5.70;3.70;;;;;;;21.20;100.00;100938.45;109690;1240;62674;-66
2023/07/05 02:13:08;;;;;;;5.70;4.00;;;;;;;21.23;100.00;100942.88;109605;1244;58214;-67
2023/07/05 02:15:40;;;;;;;6.00;4.00;;;;;;;21.23;100.00;100944.14;109596;1243;57823;-66
2023/07/05 02:18:09;;;;;;;6.10;3.90;;;;;;;21.15;100.00;100941.27;109568;1244;71844;-69
2023/07/05 02:20:37;;;;;;;4.40;3.50;;;;;;;21.13;100.00;100941.11;109826;1239;71164;-69
2023/07/05 02:23:06;;;;;;;5.10;3.70;;;;;;;20.98;100.00;100946.41;109797;1239;70869;-69
2023/07/05 02:25:36;;;;;;;7.40;3.90;;;;;;;20.91;100.00;100947.84;109764;1239;63741;-69
2023/07/05 02:28:07;;;;;;;6.40;3.90;;;;;;;20.89;100.00;100945.63;109754;1239;62856;-69
2023/07/05 02:30:38;;;;;;;5.70;4.00;;;;;;;20.86;100.00;100945.23;109571;1244;58305;-69
2023/07/05 02:33:07;;;;;;;5.80;4.60;;;;;;;20.85;100.00;100945.23;109692;1241;63628;-69
2023/07/05 02:35:38;;;;;;;7.10;4.00;;;;;;;20.87;100.00;100943.34;109780;1241;60991;-69
2023/07/05 02:38:07;;;;;;;6.30;4.10;;;;;;;20.90;100.00;100932.04;109653;1241;69660;-71
2023/07/05 02:40:35;;;;;;;6.50;4.30;;;;;;;20.91;100.00;100936.75;109766;1240;74246;-69
2023/07/05 02:43:04;;;;;;;5.80;4.60;;;;;;;20.89;100.00;100937.61;109724;1241;63346;-68
2023/07/05 02:45:33;;;;;;;6.40;4.90;;;;;;;20.92;100.00;100939.49;109757;1241;58340;-67
2023/07/05 02:48:03;;;;;;;7.20;4.80;;;;;;;20.95;100.00;100941.98;109776;1239;73551;-69
2023/07/05 02:50:31;;;;;;;6.60;4.90;;;;;;;20.99;100.00;100942.23;109770;1240;70583;-68
2023/07/05 02:53:00;;;;;;;6.40;4.90;;;;;;;20.98;100.00;100945.91;109725;1240;59745;-69
2023/07/05 02:55:29;;;;;;;6.30;4.70;;;;;;;20.95;100.00;100943.25;109777;1241;63085;-70
2023/07/05 02:57:58;;;;;;;6.00;4.60;;;;;;;20.95;100.00;100943.74;109789;1239;62817;-71
2023/07/05 03:00:29;;;;;;;6.90;4.80;;;;;;;20.92;100.00;100938.97;109797;1241;60606;-70
2023/07/05 03:02:58;;;;;;;6.40;4.80;;;;;;;20.92;100.00;100939.84;109785;1239;74517;-70
2023/07/05 03:05:26;;;;;;;5.60;4.80;;;;;;;20.86;100.00;100940.67;109816;1240;72730;-69
2023/07/05 03:07:57;;;;;;;6.20;4.50;;;;;;;20.90;100.00;100940.20;109797;1241;71087;-69
2023/07/05 03:10:27;;;;;;;7.10;4.70;;;;;;;20.92;100.00;100946.40;109807;1240;63567;-69
2023/07/05 03:12:56;;;;;;;8.00;4.80;;;;;;;20.88;100.00;100951.18;109866;1242;58347;-72
2023/07/05 03:15:25;;;;;;;7.50;5.00;;;;;;;20.88;100.00;100948.09;109927;1237;61141;-70
2023/07/05 03:17:53;;;;;;;5.80;4.00;;;;;;;20.87;100.00;100939.98;109825;1238;74723;-70
2023/07/05 03:20:22;;;;;;;7.40;4.50;;;;;;;20.87;100.00;100940.52;109927;1241;62261;-69
2023/07/05 03:22:51;;;;;;;7.60;5.00;;;;;;;20.88;100.00;100945.23;109833;1241;59039;-69
2023/07/05 03:25:20;;;;;;;6.30;4.50;;;;;;;20.89;100.00;100948.95;109874;1238;73120;-70
2023/07/05 03:27:48;;;;;;;6.60;4.80;;;;;;;20.93;100.00;100949.77;109945;1238;63034;-69
2023/07/05 03:30:17;;;;;;;5.80;4.20;;;;;;;20.95;100.00;100945.04;109737;1244;57829;-68
2023/07/05 03:32:46;;;;;;;5.80;4.10;;;;;;;20.96;100.00;100940.77;109930;1238;73725;-68
2023/07/05 03:35:15;;;;;;;6.40;4.20;;;;;;;20.95;100.00;100941.74;109816;1241;61453;-69
2023/07/05 03:37:44;;;;;;;4.50;3.70;;;;;;;20.99;100.00;100942.46;109802;1241;59785;-69
2023/07/05 03:40:13;;;;;;;6.30;4.10;;;;;;;20.98;100.00;100935.42;109800;1241;62279;-70
2023/07/05 03:42:42;;;;;;;5.20;3.80;;;;;;;20.99;100.00;100935.89;109784;1241;57796;-70
2023/07/05 03:45:11;;;;;;;6.60;4.20;;;;;;;20.96;100.00;100935.30;109897;1238;59312;-70
2023/07/05 03:47:39;;;;;;;6.90;5.00;;;;;;;20.96;100.00;100934.89;109794;1240;74979;-69
2023/07/05 03:50:08;;;;;;;13.40;11.90;;;;;;;21.02;100.00;100936.39;109856;1241;61824;-70
2023/07/05 03:52:37;;;;;;;5.80;3.60;;;;;;;21.05;100.00;100931.80;109909;1241;59093;-73
2023/07/05 03:55:06;;;;;;;7.80;4.20;;;;;;;21.06;100.00;100929.79;109751;1241;63315;-71
2023/07/05 03:57:35;;;;;;;5.90;4.00;;;;;;;21.13;100.00;100934.91;109750;1238;58325;-71
2023/07/05 04:00:05;;;;;;;7.20;4.50;;;;;;;21.19;100.00;100931.60;109912;1238;57753;-71
2023/07/05 04:02:39;;;;;;;5.10;4.00;;;;;;;21.17;100.00;100931.11;109976;1241;63628;-68
2023/07/05 04:05:08;;;;;;;5.60;3.80;;;;;;;21.18;100.00;100930.27;109858;1241;61669;-69
2023/07/05 04:07:37;;;;;;;7.60;4.50;;;;;;;21.22;100.00;100930.05;109842;1241;59212;-68
2023/07/05 04:10:06;;;;;;;8.30;5.20;;;;;;;21.30;100.00;100932.83;109772;1240;73933;-69
2023/07/05 04:12:35;;;;;;;7.90;5.00;;;;;;;21.37;100.00;100940.71;109798;1241;57809;-68
2023/07/05 04:15:04;;;;;;;5.40;4.00;;;;;;;21.47;100.00;100947.34;109809;1238;60275;-69
2023/07/05 04:17:33;;;;;;;5.80;4.60;;;;;;;21.56;100.00;100947.98;109872;1238;64240;-72
2023/07/05 04:20:03;;;;;;;6.10;4.20;;;;;;;21.58;100.00;100943.64;109729;1239;71994;-71
2023/07/05 04:22:33;;;;;;;8.20;4.80;;;;;;;21.63;100.00;100939.92;109739;1238;70744;-70
2023/07/05 04:25:02;;;;;;;6.20;4.60;;;;;;;21.60;100.00;100938.52;109613;1238;72872;-71
2023/07/05 04:27:31;;;;;;;8.60;5.30;;;;;;;21.61;100.00;100941.54;109502;1241;58312;-71
2023/07/05 04:30:00;;;;;;;6.00;4.60;;;;;;;21.67;100.00;100941.14;109607;1238;61092;-73
2023/07/05 04:32:29;;;;;;;8.60;4.80;;;;;;;21.77;100.00;100938.61;109562;1238;74047;-71
2023/07/05 04:34:58;;;;;;;7.80;5.00;;;;;;;21.84;100.00;100942.86;109586;1241;63902;-71
2023/07/05 04:37:27;;;;;;;6.70;4.80;;;;;;;21.93;100.00;100946.66;109613;1239;59511;-71
2023/07/05 04:40:01;;;;;;;10.20;5.70;;;;;;;21.98;100.00;100949.48;109683;1241;71865;-72
2023/07/05 04:42:31;;;;;;;6.70;4.90;;;;;;;22.09;100.00;100946.01;109651;1241;62097;-69
2023/07/05 04:44:59;;;;;;;6.70;5.00;;;;;;;22.16;100.00;100952.11;109804;1238;59398;-71
2023/07/05 04:47:28;;;;;;;6.90;5.10;;;;;;;22.18;100.00;100956.17;109825;1238;63442;-70
2023/07/05 04:49:57;;;;;;;8.10;5.40;;;;;;;22.17;100.00;100955.92;109791;1239;61455;-68
2023/07/05 04:52:26;;;;;;;8.10;5.30;;;;;;;22.08;100.00;100959.24;109797;1239;71210;-73
2023/07/05 04:54:54;;;;;;;8.10;5.50;;;;;;;22.12;100.00;100964.71;109896;1238;74184;-68
2023/07/05 04:57:23;;;;;;;7.00;5.50;;;;;;;22.21;100.00;100968.39;109864;1241;58402;-68
2023/07/05 05:00:05;;;;;;;6.90;4.90;;;;;;;22.30;100.00;100972.63;109754;1240;59988;-70
2023/07/05 05:02:34;;;;;;;6.40;5.10;;;;;;;22.30;100.00;100969.17;109780;1241;63568;-70
2023/07/05 05:05:06;;;;;;;7.20;5.30;;;;;;;22.34;100.00;100967.52;109706;1241;71298;-72
2023/07/05 05:07:35;;;;;;;7.60;5.10;;;;;;;22.51;100.00;100969.79;109444;1238;70962;-72
2023/07/05 05:10:04;;;;;;;7.70;5.30;;;;;;;22.65;100.00;100967.06;109683;1240;63774;-72
2023/07/05 05:12:33;;;;;;;8.20;4.80;;;;;;;22.68;100.00;100968.14;109826;1241;62995;-71
2023/07/05 05:15:02;;;;;;;6.20;4.70;;;;;;;22.85;100.00;100973.71;109710;1240;61482;-70
2023/07/05 05:17:31;;;;;;;7.00;5.30;;;;;;;22.80;100.00;100974.30;109761;1241;74686;-68
2023/07/05 05:19:59;;;;;;;5.90;4.70;;;;;;;22.75;100.00;100980.58;109755;1238;71923;-70
2023/07/05 05:22:29;;;;;;;6.40;4.90;;;;;;;22.71;100.00;100976.88;109822;1238;61020;-70
2023/07/05 05:24:57;;;;;;;7.50;5.50;;;;;;;22.70;100.00;100977.46;109853;1238;73908;-71
2023/07/05 05:27:26;;;;;;;6.50;5.10;;;;;;;22.73;100.00;100970.72;109793;1238;58348;-69
2023/07/05 05:29:55;;;;;;;6.60;5.50;;;;;;;22.71;100.00;100967.41;109939;1238;58292;-69
2023/07/05 05:32:24;;;;;;;10.60;5.30;;;;;;;22.84;100.00;100965.92;109788;1239;63010;-69
2023/07/05 05:34:54;;;;;;;6.60;5.00;;;;;;;22.98;100.00;100970.68;109860;1238;72095;-70
2023/07/05 05:37:23;;;;;;;6.20;5.30;;;;;;;23.09;100.00;100971.90;109837;1238;70078;-67
2023/07/05 05:39:51;;;;;;;6.00;4.70;;;;;;;23.09;100.00;100969.97;109856;1238;73434;-69
2023/07/05 05:42:20;;;;;;;7.00;5.50;;;;;;;23.15;100.00;100964.19;109732;1238;59744;-68
2023/07/05 05:44:49;;;;;;;8.30;6.20;;;;;;;23.23;100.00;100966.09;109933;1238;60151;-69
2023/07/05 05:47:18;;;;;;;7.60;5.70;;;;;;;23.28;100.00;100957.87;109840;1238;74028;-69
2023/07/05 05:49:46;;;;;;;7.00;6.00;;;;;;;23.22;100.00;100964.57;109862;1238;72451;-71
2023/07/05 05:52:15;;;;;;;7.30;5.50;;;;;;;23.14;100.00;100966.23;109877;1238;71007;-68
2023/07/05 05:54:44;;;;;;;8.30;5.90;;;;;;;23.21;100.00;100967.42;109913;1238;63469;-68
2023/07/05 05:57:13;;;;;;;6.70;5.70;;;;;;;23.52;100.00;100965.55;109903;1238;58304;-68
2023/07/05 05:59:42;;;;;;;7.70;5.30;;;;;;;23.90;100.00;100965.98;109926;1239;59210;-69
2023/07/05 06:02:10;;;;;;;7.30;5.50;;;;;;;24.17;100.00;100969.28;109768;1238;75143;-69
2023/07/05 06:04:39;;;;;;;8.20;5.60;;;;;;;24.39;100.00;100964.41;109928;1238;72503;-68
2023/07/05 06:07:08;;;;;;;9.00;7.90;;;;;;;24.63;100.00;100962.97;109732;1238;60276;-69
2023/07/05 06:09:39;;;;;;;7.60;5.70;;;;;;;24.86;100.00;100958.77;109889;1238;63297;-68
2023/07/05 06:12:08;;;;;;;8.50;5.40;;;;;;;25.00;100.00;100952.72;109587;1243;62837;-69
2023/07/05 06:14:36;;;;;;;7.60;6.00;;;;;;;25.12;100.00;100951.27;109863;1238;58253;-68
2023/07/05 06:17:06;;;;;;;7.20;5.30;;;;;;;25.25;100.00;100949.65;109825;1238;65125;-70
2023/07/05 06:19:35;;;;;;;8.00;5.40;;;;;;;25.59;100.00;100946.85;109915;1238;72328;-69
2023/07/05 06:22:04;;;;;;;8.00;5.10;;;;;;;25.72;99.96;100954.41;109708;1238;71058;-69
2023/07/05 06:24:32;;;;;;;6.60;4.90;;;;;;;25.91;99.73;100952.42;109777;1238;73738;-68
2023/07/05 06:27:01;;;;;;;5.80;4.80;;;;;;;25.96;99.39;100950.33;109799;1241;58302;-70
2023/07/05 06:29:30;;;;;;;6.50;5.20;;;;;;;26.06;99.67;100950.04;109769;1238;61656;-68
2023/07/05 06:31:59;;;;;;;8.10;5.90;;;;;;;26.12;98.84;100949.79;109893;1240;75255;-70
2023/07/05 06:34:28;;;;;;;7.10;5.20;;;;;;;26.18;98.55;100957.93;109702;1240;62267;-70
2023/07/05 06:36:57;;;;;;;7.60;5.40;;;;;;;26.19;98.44;100963.16;109921;1238;59536;-70
2023/07/05 06:39:26;;;;;;;7.00;5.60;;;;;;;26.14;97.60;100960.48;109889;1238;63685;-68
2023/07/05 06:41:55;;;;;;;7.20;5.30;;;;;;;26.23;96.95;100963.08;109869;1240;61290;-69
2023/07/05 06:44:24;;;;;;;7.60;5.70;;;;;;;26.34;96.62;100961.30;109877;1238;61168;-69
2023/07/05 06:46:53;;;;;;;6.60;5.40;;;;;;;26.31;96.47;100964.73;109885;1238;73610;-70
2023/07/05 06:49:22;;;;;;;11.60;6.00;;;;;;;26.71;94.93;100961.56;109856;1238;71370;-72
2023/07/05 06:51:53;;;;;;;6.60;5.20;;;;;;;26.79;95.22;100963.94;109871;1240;62164;-70
2023/07/05 06:54:21;;;;;;;8.30;5.50;;;;;;;26.85;94.57;100963.21;109906;1238;73323;-70
2023/07/05 06:56:50;;;;;;;9.00;5.80;;;;;;;26.82;94.50;100956.13;109824;1239;58329;-70
2023/07/05 06:59:19;;;;;;;6.80;5.60;;;;;;;26.94;94.02;100949.12;109869;1241;57795;-69
2023/07/05 07:01:48;;;;;;;9.60;6.70;;;;;;;27.03;92.82;100949.38;109850;1238;63101;-70
2023/07/05 07:04:17;;;;;;;7.20;5.90;;;;;;;26.93;92.52;100941.63;109873;1238;61795;-71
2023/07/05 07:06:46;;;;;;;6.60;5.40;;;;;;;27.28;92.20;100943.36;109828;1241;69684;-69
2023/07/05 07:09:15;;;;;;;9.50;5.20;;;;;;;27.56;90.50;100938.44;109432;1238;63171;-70
2023/07/05 07:11:44;;;;;;;7.70;5.50;;;;;;;27.81;89.24;100936.56;109556;1241;57780;-70
2023/07/05 07:14:12;;;;;;;9.20;5.90;;;;;;;27.98;88.77;100935.96;109674;1238;57840;-71
2023/07/05 07:16:41;;;;;;;8.60;5.60;;;;;;;28.16;87.81;100939.21;109713;1240;74990;-69
2023/07/05 07:19:10;;;;;;;7.30;5.30;;;;;;;28.10;88.63;100942.62;109693;1238;72022;-70
2023/07/05 07:21:39;;;;;;;7.80;5.50;;;;;;;27.70;91.24;100937.78;109690;1239;60459;-70
2023/07/05 07:24:09;;;;;;;7.30;5.50;;;;;;;27.16;93.71;100936.52;109569;1240;73648;-72
2023/07/05 07:26:38;;;;;;;9.20;6.50;;;;;;;26.87;95.86;100943.70;109578;1238;61255;-70
2023/07/05 07:29:11;;;;;;;9.80;6.10;;;;;;;26.68;97.07;100946.33;109714;1240;57742;-71
2023/07/05 07:31:41;;;;;;;8.30;5.80;;;;;;;26.71;97.10;100947.10;109534;1241;62966;-70
2023/07/05 07:34:10;;;;;;;7.40;6.20;;;;;;;26.87;97.39;100944.40;109734;1238;70572;-71
2023/07/05 07:36:39;;;;;;;7.40;6.10;;;;;;;26.91;97.88;100950.65;109838;1240;60501;-69
2023/07/05 07:39:08;;;;;;;7.50;6.60;;;;;;;26.98;97.48;100958.42;109699;1240;73638;-73
2023/07/05 07:41:38;;;;;;;7.40;6.60;;;;;;;26.80;99.03;100963.80;109712;1238;58278;-69
2023/07/05 07:44:10;;;;;;;7.90;6.30;;;;;;;26.96;98.37;100961.39;109726;1241;57735;-71
2023/07/05 07:46:39;;;;;;;;;;;;;;;26.98;98.31;100955.20;109792;1238;63849;-70
2023/07/05 07:49:10;;;;;;;8.20;5.60;;;;;;;27.09;97.58;100956.21;109750;1240;71497;-70
2023/07/05 07:51:44;;;;;;;9.00;6.20;;;;;;;27.02;97.68;100958.70;109688;1238;59464;-69
2023/07/05 07:54:26;;;;;;;10.90;6.30;;;;;;;26.88;98.22;100957.64;109681;1238;63336;-69
2023/07/05 07:56:56;;;;;;;7.50;6.00;;;;;;;26.95;98.03;100958.64;109876;1240;58277;-69
2023/07/05 07:59:25;;;;;;;7.50;6.60;;;;;;;27.17;97.24;100964.45;109705;1238;60379;-70
2023/07/05 08:01:54;;;;;;;7.50;6.00;;;;;;;27.31;96.55;100961.18;109790;1238;66116;-70
2023/07/05 08:04:23;;;;;;;6.90;6.00;;;;;;;27.39;95.71;100957.09;109881;1238;61191;-70
2023/07/05 08:06:53;;;;;;;9.20;6.60;;;;;;;27.47;95.53;100961.05;109491;1238;71341;-69
2023/07/05 08:09:27;;;;;;;10.40;7.00;;;;;;;27.62;94.74;100964.45;109570;1238;74242;-71
2023/07/05 08:11:56;;;;;;;8.60;6.30;;;;;;;27.65;94.22;100966.89;109686;1240;57886;-70
2023/07/05 08:14:25;;;;;;;8.40;6.60;;;;;;;27.43;95.65;100968.52;109755;1240;57904;-69
2023/07/05 08:16:54;;;;;;;6.70;5.80;;;;;;;27.72;94.18;100967.17;109767;1241;63731;-71
2023/07/05 08:19:23;;;;;;;8.70;6.50;;;;;;;27.61;94.39;100970.58;109758;1238;63627;-70
2023/07/05 08:21:52;;;;;;;8.00;5.90;;;;;;;27.74;93.55;100972.48;109766;1238;62568;-71
2023/07/05 08:24:21;;;;;;;9.20;7.40;;;;;;;27.84;92.93;100971.75;109732;1240;63230;-71
2023/07/05 08:26:56;;;;;;;8.20;6.90;;;;;;;27.83;92.74;100969.73;109736;1241;57776;-71
2023/07/05 08:29:25;;;;;;;8.10;6.40;;;;;;;27.78;92.92;100973.00;109731;1238;57777;-70
2023/07/05 08:31:54;;;;;;;8.60;7.00;;;;;;;27.74;92.92;100968.03;109723;1242;62779;-70
2023/07/05 08:34:24;;;;;;;7.80;6.30;;;;;;;27.71;93.36;100967.59;109873;1238;72354;-70
2023/07/05 08:36:53;;;;;;;7.50;6.30;;;;;;;27.84;92.69;100971.75;109779;1239;71435;-70
2023/07/05 08:39:22;;;;;;;7.50;6.60;;;;;;;27.87;92.15;100974.95;109878;1238;64029;-70
2023/07/05 08:42:30;;;;;;;7.90;7.10;;;;;;;27.81;92.75;100972.23;109807;1238;58340;-70
2023/07/05 08:45:22;;;;;;;9.40;6.60;;;;;;;28.07;91.40;100968.88;109893;1241;57829;-70
2023/07/05 08:47:57;;;;;;;7.80;6.70;;;;;;;28.08;91.61;100968.29;109824;1238;73478;-70
2023/07/05 08:50:38;;;;;;;7.70;6.40;;;;;;;28.35;90.10;100969.10;109764;1241;61425;-70
2023/07/05 08:53:23;;;;;;;8.40;6.60;;;;;;;28.45;88.93;100972.42;109877;1238;59674;-73
2023/07/05 08:56:12;;;;;;;8.80;6.70;;;;;;;28.48;89.07;100968.39;109834;1238;63412;-69
2023/07/05 08:58:48;;;;;;;9.30;6.60;;;;;;;28.41;89.23;100975.35;109750;1241;57759;-69
2023/07/05 09:01:32;;;;;;;9.80;7.00;;;;;;;28.32;88.58;100976.48;109798;1239;60409;-70
2023/07/05 09:04:00;;;;;;;10.10;6.60;;;;;;;28.86;86.45;100971.12;109728;1239;75376;-70
2023/07/05 09:06:50;;;;;;;10.10;7.10;;;;;;;29.09;84.88;100965.77;109901;1241;60711;-70
2023/07/05 09:09:21;;;;;;;7.90;7.10;;;;;;;29.08;84.49;100970.95;109727;1238;69691;-74
2023/07/05 09:12:03;;;;;;;9.10;7.20;;;;;;;29.22;83.68;100969.27;109836;1240;63774;-74
2023/07/05 09:14:50;;;;;;;10.90;8.10;;;;;;;29.31;83.42;100968.02;109870;1241;58299;-74
2023/07/05 09:17:49;;;;;;;7.50;6.60;;;;;;;29.54;82.47;100965.83;109820;1241;58296;-74
2023/07/05 09:20:45;;;;;;;9.40;7.00;;;;;;;29.40;81.96;100964.89;109891;1238;74480;-74
2023/07/05 09:23:42;;;;;;;10.70;7.00;;;;;;;29.31;82.93;100964.56;109901;1240;62906;-74
2023/07/05 09:26:27;;;;;;;8.90;6.50;;;;;;;29.50;82.61;100957.02;109785;1238;60577;-75
2023/07/05 09:29:29;;;;;;;7.60;6.80;;;;;;;29.51;82.40;100955.80;109724;1238;65673;-74
2023/07/05 09:32:10;;;;;;;8.20;7.30;;;;;;;29.40;82.44;100955.29;109855;1238;61832;-73
2023/07/05 09:34:50;;;;;;;8.40;6.80;;;;;;;29.33;83.70;100955.97;109765;1241;61715;-74
2023/07/05 09:37:37;;;;;;;11.30;6.80;;;;;;;29.72;81.67;100950.02;109756;1240;65900;-74
2023/07/05 09:40:32;;;;;;;8.50;7.20;;;;;;;29.78;81.92;100943.96;109719;1239;72655;-74
2023/07/05 09:43:08;;;;;;;8.10;7.00;;;;;;;29.78;81.41;100938.83;109785;1238;61075;-74
2023/07/05 09:45:37;;;;;;;7.90;7.10;;;;;;;29.70;80.56;100938.55;109792;1241;64202;-73
2023/07/05 09:48:11;;;;;;;9.50;6.80;;;;;;;29.69;80.68;100938.88;109693;1241;58192;-74
2023/07/05 09:50:49;;;;;;;8.30;7.10;;;;;;;29.44;82.13;100938.88;109715;1242;61286;-74
2023/07/05 09:53:38;;;;;;;8.10;7.00;;;;;;;29.54;81.82;100935.65;109799;1238;63806;-74
2023/07/05 09:56:13;;;;;;;8.40;6.80;;;;;;;29.65;81.65;100931.73;109786;1242;62285;-74
2023/07/05 09:58:45;;;;;;;9.10;7.30;;;;;;;29.94;80.36;100927.75;109866;1240;69723;-73
2023/07/05 10:01:21;;;;;;;7.50;6.70;;;;;;;30.08;79.79;100921.80;109713;1239;74360;-76
2023/07/05 10:03:54;;;;;;;9.30;7.50;;;;;;;30.17;79.16;100922.32;109883;1238;60105;-73
2023/07/05 10:06:26;;;;;;;7.80;6.50;;;;;;;30.13;78.94;100920.61;109893;1240;57793;-73
2023/07/05 10:09:00;;;;;;;;;;;;;;;30.23;77.99;100914.71;109818;1241;63004;-74
2023/07/05 10:11:33;;;;;;;8.30;7.00;;;;;;;29.94;79.46;100912.84;109730;1239;71465;-73
2023/07/05 10:14:05;;;;;;;7.30;6.60;;;;;;;29.65;80.52;100910.30;109688;1238;70059;-74
2023/07/05 10:16:48;;;;;;;;;;;;;;;29.75;78.74;100910.12;109870;1240;65275;-74
2023/07/05 10:19:39;;;;;;;7.60;6.70;;;;;;;30.04;77.77;100912.38;109878;1240;57787;-74
2023/07/05 10:22:20;;;;;;;8.40;6.90;;;;;;;30.22;76.02;100903.41;109859;1241;58310;-74
2023/07/05 10:24:51;;;;;;;7.30;6.60;;;;;;;30.45;76.29;100903.05;109878;1238;73484;-74
2023/07/05 10:27:32;;;;;;;7.70;6.30;;;;;;;30.64;76.18;100901.67;109799;1240;61863;-75
2023/07/05 10:30:12;;;;;;;10.10;6.30;;;;;;;30.73;75.85;100901.07;109902;1240;61707;-74
2023/07/05 10:32:51;;;;;;;8.50;6.10;;;;;;;30.74;75.77;100895.03;109888;1240;73458;-74
2023/07/05 10:35:29;;;;;;;8.50;6.80;;;;;;;30.97;75.18;100890.73;109899;1240;57727;-74
2023/07/05 10:37:58;;;;;;;7.60;6.10;;;;;;;31.21;74.51;100885.04;109776;1241;61028;-74
2023/07/05 10:40:27;;;;;;;7.10;5.90;;;;;;;31.63;72.31;100876.89;109861;1241;66056;-75
2023/07/05 10:43:01;;;;;;;8.90;6.50;;;;;;;31.73;71.17;100872.29;109576;1243;71922;-74
2023/07/05 10:45:38;;;;;;;8.70;6.50;;;;;;;31.78;71.83;100868.91;109700;1240;59819;-74
2023/07/05 10:48:23;;;;;;;9.50;6.00;;;;;;;31.94;70.19;100865.70;109664;1240;65045;-73
2023/07/05 10:50:52;;;;;;;12.00;6.50;;;;;;;32.04;68.18;100858.22;109507;1244;58391;-73
2023/07/05 10:53:25;;;;;;;6.90;6.20;;;;;;;31.93;65.59;100861.70;109790;1241;61108;-73
2023/07/05 10:56:14;;;;;;;7.40;6.30;;;;;;;32.09;64.10;100856.40;109685;1240;64068;-73
2023/07/05 10:58:51;;;;;;;7.40;5.90;;;;;;;32.77;62.28;100850.38;109600;1239;60778;-73
2023/07/05 11:01:26;;;;;;;6.50;5.90;;;;;;;32.93;60.26;100852.99;109671;1239;59852;-73
2023/07/05 11:04:12;;;;;;;6.30;5.50;;;;;;;32.88;57.64;100857.17;109654;1242;72981;-72
2023/07/05 11:06:43;;;;;;;8.40;5.80;;;;;;;32.60;55.50;100860.09;109564;1242;58386;-76
2023/07/05 11:09:12;;;;;;;6.80;5.70;;;;;;;32.97;55.18;100857.95;109600;1240;58321;-75
2023/07/05 11:11:47;;;;;;;10.30;6.30;;;;;;;32.68;55.58;100851.48;109824;1240;63671;-76
2023/07/05 11:14:16;;;;;;;6.10;5.50;;;;;;;32.58;56.70;100847.78;109826;1238;72184;-73
2023/07/05 11:16:47;;;;;;;7.10;5.60;;;;;;;33.55;55.63;100849.58;109900;1238;61437;-73
2023/07/05 11:19:24;;;;;;;10.60;5.20;;;;;;;34.27;53.21;100846.82;109652;1238;63355;-79
2023/07/05 11:21:54;;;;;;;11.40;5.30;;;;;;;34.71;49.76;100846.78;109846;1240;58130;-74
2023/07/05 11:24:32;;;;;;;6.20;5.50;;;;;;;35.30;48.44;100842.34;109798;1239;57717;-74
2023/07/05 11:27:21;;;;;;;8.70;6.80;;;;;;;35.75;47.22;100840.90;109947;1238;73895;-73
2023/07/05 11:29:54;;;;;;;8.80;5.40;;;;;;;35.02;47.39;100836.28;109846;1238;71848;-76
2023/07/05 11:33:03;;;;;;;6.70;5.20;;;;;;;35.00;47.52;100839.40;109854;1238;59560;-77
2023/07/05 11:35:54;;;;;;;6.50;5.50;;;;;;;34.73;48.30;100831.27;109926;1238;63401;-73
2023/07/05 11:38:39;;;;;;;5.90;5.30;;;;;;;34.79;48.23;100828.79;109690;1241;58602;-73
2023/07/05 11:41:39;;;;;;;6.20;5.10;;;;;;;34.48;48.72;100827.33;109793;1238;58260;-73
2023/07/05 11:44:29;;;;;;;6.10;5.20;;;;;;;35.23;47.92;100819.40;109753;1238;63938;-73